sensor_id;sensor_type;location;lat;lon;timestamp;P1;durP1;ratioP1;P2;durP2;ratioP2
5416;SDS011;2731;50.754;12.990;2024-02-26T00:01:08;36.25;;;17.65;;
5416;SDS011;2731;50.754;12.990;2024-02-26T00:03:35;30.42;;;17.92;;
5416;SDS011;2731;50.754;12.990;2024-02-26T00:06:03;31.52;;;17.45;;
5416;SDS011;2731;50.754;12.990;2024-02-26T00:08:32;29.10;;;17.50;;
5416;SDS011;2731;50.754;12.990;2024-02-26T00:11:00;32.78;;;17.83;;
5416;SDS011;2731;50.754;12.990;2024-02-26T00:13:26;30.40;;;17.38;;
5416;SDS011;2731;50.754;12.990;2024-02-26T00:15:54;37.30;;;18.40;;
5416;SDS011;2731;50.754;12.990;2024-02-26T00:18:20;33.17;;;18.35;;
5416;SDS011;2731;50.754;12.990;2024-02-26T00:20:49;36.75;;;20.52;;
5416;SDS011;2731;50.754;12.990;2024-02-26T00:23:17;31.42;;;17.02;;
5416;SDS011;2731;50.754;12.990;2024-02-26T00:25:43;36.78;;;18.35;;
5416;SDS011;2731;50.754;12.990;2024-02-26T00:28:10;31.05;;;17.75;;
5416;SDS011;2731;50.754;12.990;2024-02-26T00:30:42;27.42;;;15.65;;
5416;SDS011;2731;50.754;12.990;2024-02-26T00:33:10;32.90;;;16.65;;
5416;SDS011;2731;50.754;12.990;2024-02-26T00:35:38;33.40;;;18.35;;
5416;SDS011;2731;50.754;12.990;2024-02-26T00:38:29;33.53;;;17.52;;
5416;SDS011;2731;50.754;12.990;2024-02-26T00:40:58;28.85;;;16.52;;
5416;SDS011;2731;50.754;12.990;2024-02-26T00:43:27;30.50;;;15.70;;
5416;SDS011;2731;50.754;12.990;2024-02-26T00:45:56;32.15;;;16.15;;
5416;SDS011;2731;50.754;12.990;2024-02-26T00:48:22;30.15;;;16.55;;
5416;SDS011;2731;50.754;12.990;2024-02-26T00:50:50;30.40;;;16.98;;
5416;SDS011;2731;50.754;12.990;2024-02-26T00:53:24;30.58;;;17.40;;
5416;SDS011;2731;50.754;12.990;2024-02-26T00:55:50;28.13;;;16.08;;
5416;SDS011;2731;50.754;12.990;2024-02-26T00:58:19;31.17;;;16.42;;
5416;SDS011;2731;50.754;12.990;2024-02-26T01:00:49;28.73;;;16.08;;
5416;SDS011;2731;50.754;12.990;2024-02-26T01:03:30;28.80;;;16.38;;
5416;SDS011;2731;50.754;12.990;2024-02-26T01:05:56;31.45;;;16.38;;
5416;SDS011;2731;50.754;12.990;2024-02-26T01:08:23;30.05;;;17.33;;
5416;SDS011;2731;50.754;12.990;2024-02-26T01:10:52;36.45;;;15.90;;
5416;SDS011;2731;50.754;12.990;2024-02-26T01:13:20;31.13;;;17.48;;
5416;SDS011;2731;50.754;12.990;2024-02-26T01:15:46;32.45;;;16.38;;
5416;SDS011;2731;50.754;12.990;2024-02-26T01:18:18;32.65;;;18.20;;
5416;SDS011;2731;50.754;12.990;2024-02-26T01:20:45;29.45;;;16.40;;
5416;SDS011;2731;50.754;12.990;2024-02-26T01:23:12;29.48;;;16.30;;
5416;SDS011;2731;50.754;12.990;2024-02-26T01:25:41;30.52;;;16.15;;
5416;SDS011;2731;50.754;12.990;2024-02-26T01:28:09;33.92;;;16.90;;
5416;SDS011;2731;50.754;12.990;2024-02-26T01:30:37;27.50;;;15.43;;
5416;SDS011;2731;50.754;12.990;2024-02-26T01:33:06;29.50;;;15.63;;
5416;SDS011;2731;50.754;12.990;2024-02-26T01:35:35;30.17;;;16.88;;
5416;SDS011;2731;50.754;12.990;2024-02-26T01:38:02;29.88;;;16.38;;
5416;SDS011;2731;50.754;12.990;2024-02-26T01:40:29;27.50;;;15.82;;
5416;SDS011;2731;50.754;12.990;2024-02-26T01:42:56;27.95;;;15.55;;
5416;SDS011;2731;50.754;12.990;2024-02-26T01:45:23;29.55;;;15.68;;
5416;SDS011;2731;50.754;12.990;2024-02-26T01:47:51;32.03;;;17.35;;
5416;SDS011;2731;50.754;12.990;2024-02-26T01:50:17;33.15;;;16.83;;
5416;SDS011;2731;50.754;12.990;2024-02-26T01:52:49;33.38;;;17.65;;
5416;SDS011;2731;50.754;12.990;2024-02-26T01:55:23;29.73;;;16.92;;
5416;SDS011;2731;50.754;12.990;2024-02-26T01:57:51;28.85;;;14.82;;
5416;SDS011;2731;50.754;12.990;2024-02-26T02:00:19;29.58;;;15.93;;
5416;SDS011;2731;50.754;12.990;2024-02-26T02:02:49;26.05;;;14.65;;
5416;SDS011;2731;50.754;12.990;2024-02-26T02:05:22;29.20;;;15.40;;
5416;SDS011;2731;50.754;12.990;2024-02-26T02:07:48;26.17;;;15.13;;
5416;SDS011;2731;50.754;12.990;2024-02-26T02:10:20;29.08;;;14.80;;
5416;SDS011;2731;50.754;12.990;2024-02-26T02:12:51;26.65;;;14.50;;
5416;SDS011;2731;50.754;12.990;2024-02-26T02:15:20;27.02;;;14.95;;
5416;SDS011;2731;50.754;12.990;2024-02-26T02:18:07;26.08;;;15.57;;
5416;SDS011;2731;50.754;12.990;2024-02-26T02:20:33;25.48;;;14.65;;
5416;SDS011;2731;50.754;12.990;2024-02-26T02:22:59;26.40;;;14.93;;
5416;SDS011;2731;50.754;12.990;2024-02-26T02:25:30;28.95;;;15.40;;
5416;SDS011;2731;50.754;12.990;2024-02-26T02:27:58;26.60;;;14.55;;
5416;SDS011;2731;50.754;12.990;2024-02-26T02:30:28;27.90;;;14.77;;
5416;SDS011;2731;50.754;12.990;2024-02-26T02:32:54;26.75;;;14.65;;
5416;SDS011;2731;50.754;12.990;2024-02-26T02:35:22;26.83;;;14.93;;
5416;SDS011;2731;50.754;12.990;2024-02-26T02:37:52;24.05;;;13.30;;
5416;SDS011;2731;50.754;12.990;2024-02-26T02:40:21;25.15;;;14.18;;
5416;SDS011;2731;50.754;12.990;2024-02-26T02:42:51;23.45;;;14.18;;
5416;SDS011;2731;50.754;12.990;2024-02-26T02:45:18;24.55;;;14.07;;
5416;SDS011;2731;50.754;12.990;2024-02-26T02:47:47;23.95;;;15.02;;
5416;SDS011;2731;50.754;12.990;2024-02-26T02:50:14;22.30;;;13.38;;
5416;SDS011;2731;50.754;12.990;2024-02-26T02:52:42;24.63;;;14.73;;
5416;SDS011;2731;50.754;12.990;2024-02-26T02:55:08;24.25;;;12.82;;
5416;SDS011;2731;50.754;12.990;2024-02-26T02:57:36;25.52;;;13.32;;
5416;SDS011;2731;50.754;12.990;2024-02-26T03:00:09;22.52;;;13.40;;
5416;SDS011;2731;50.754;12.990;2024-02-26T03:02:40;20.15;;;12.93;;
5416;SDS011;2731;50.754;12.990;2024-02-26T03:05:28;24.45;;;14.32;;
5416;SDS011;2731;50.754;12.990;2024-02-26T03:07:54;24.98;;;14.40;;
5416;SDS011;2731;50.754;12.990;2024-02-26T03:10:22;28.02;;;13.85;;
5416;SDS011;2731;50.754;12.990;2024-02-26T03:12:53;26.50;;;14.23;;
5416;SDS011;2731;50.754;12.990;2024-02-26T03:15:25;28.50;;;14.45;;
5416;SDS011;2731;50.754;12.990;2024-02-26T03:17:51;26.00;;;14.10;;
5416;SDS011;2731;50.754;12.990;2024-02-26T03:20:18;25.08;;;14.10;;
5416;SDS011;2731;50.754;12.990;2024-02-26T03:22:47;27.70;;;14.82;;
5416;SDS011;2731;50.754;12.990;2024-02-26T03:25:14;27.80;;;15.85;;
5416;SDS011;2731;50.754;12.990;2024-02-26T03:27:40;27.45;;;14.70;;
5416;SDS011;2731;50.754;12.990;2024-02-26T03:30:07;27.20;;;13.93;;
5416;SDS011;2731;50.754;12.990;2024-02-26T03:32:35;27.00;;;12.25;;
5416;SDS011;2731;50.754;12.990;2024-02-26T03:35:03;26.63;;;14.02;;
5416;SDS011;2731;50.754;12.990;2024-02-26T03:37:31;23.88;;;13.57;;
5416;SDS011;2731;50.754;12.990;2024-02-26T03:39:58;28.75;;;14.93;;
5416;SDS011;2731;50.754;12.990;2024-02-26T03:42:25;27.60;;;15.30;;
5416;SDS011;2731;50.754;12.990;2024-02-26T03:44:55;25.17;;;14.52;;
5416;SDS011;2731;50.754;12.990;2024-02-26T03:47:25;23.65;;;13.15;;
5416;SDS011;2731;50.754;12.990;2024-02-26T03:49:51;29.92;;;15.40;;
5416;SDS011;2731;50.754;12.990;2024-02-26T03:52:18;29.05;;;14.65;;
5416;SDS011;2731;50.754;12.990;2024-02-26T03:54:45;26.60;;;15.13;;
5416;SDS011;2731;50.754;12.990;2024-02-26T03:57:12;24.33;;;13.77;;
5416;SDS011;2731;50.754;12.990;2024-02-26T03:59:41;25.55;;;13.85;;
5416;SDS011;2731;50.754;12.990;2024-02-26T04:02:08;25.92;;;14.27;;
5416;SDS011;2731;50.754;12.990;2024-02-26T04:04:36;23.48;;;13.88;;
5416;SDS011;2731;50.754;12.990;2024-02-26T04:07:02;25.40;;;14.15;;
5416;SDS011;2731;50.754;12.990;2024-02-26T04:09:31;29.52;;;14.52;;
5416;SDS011;2731;50.754;12.990;2024-02-26T04:11:58;25.60;;;13.05;;
5416;SDS011;2731;50.754;12.990;2024-02-26T04:14:27;25.20;;;15.07;;
5416;SDS011;2731;50.754;12.990;2024-02-26T04:16:55;24.92;;;13.75;;
5416;SDS011;2731;50.754;12.990;2024-02-26T04:19:22;29.67;;;15.43;;
5416;SDS011;2731;50.754;12.990;2024-02-26T04:22:01;28.67;;;15.45;;
5416;SDS011;2731;50.754;12.990;2024-02-26T04:24:30;24.13;;;13.75;;
5416;SDS011;2731;50.754;12.990;2024-02-26T04:26:56;26.83;;;13.75;;
5416;SDS011;2731;50.754;12.990;2024-02-26T04:29:23;28.48;;;16.48;;
5416;SDS011;2731;50.754;12.990;2024-02-26T04:31:51;28.70;;;15.55;;
5416;SDS011;2731;50.754;12.990;2024-02-26T04:34:18;40.10;;;17.38;;
5416;SDS011;2731;50.754;12.990;2024-02-26T04:36:44;31.33;;;17.35;;
5416;SDS011;2731;50.754;12.990;2024-02-26T04:39:15;30.65;;;16.77;;
5416;SDS011;2731;50.754;12.990;2024-02-26T04:41:42;38.78;;;18.70;;
5416;SDS011;2731;50.754;12.990;2024-02-26T04:44:11;32.53;;;16.83;;
5416;SDS011;2731;50.754;12.990;2024-02-26T04:46:39;29.45;;;14.98;;
5416;SDS011;2731;50.754;12.990;2024-02-26T04:49:07;28.25;;;14.50;;
5416;SDS011;2731;50.754;12.990;2024-02-26T04:51:35;22.33;;;13.40;;
5416;SDS011;2731;50.754;12.990;2024-02-26T04:54:03;23.05;;;13.32;;
5416;SDS011;2731;50.754;12.990;2024-02-26T04:56:29;23.30;;;13.70;;
5416;SDS011;2731;50.754;12.990;2024-02-26T04:58:57;27.15;;;14.02;;
5416;SDS011;2731;50.754;12.990;2024-02-26T05:01:28;22.50;;;12.70;;
5416;SDS011;2731;50.754;12.990;2024-02-26T05:03:56;23.15;;;12.77;;
5416;SDS011;2731;50.754;12.990;2024-02-26T05:06:27;23.40;;;13.05;;
5416;SDS011;2731;50.754;12.990;2024-02-26T05:08:59;22.13;;;13.18;;
5416;SDS011;2731;50.754;12.990;2024-02-26T05:11:29;22.50;;;12.30;;
5416;SDS011;2731;50.754;12.990;2024-02-26T05:13:55;24.88;;;12.07;;
5416;SDS011;2731;50.754;12.990;2024-02-26T05:16:22;24.45;;;13.20;;
5416;SDS011;2731;50.754;12.990;2024-02-26T05:18:49;24.83;;;11.40;;
5416;SDS011;2731;50.754;12.990;2024-02-26T05:21:17;23.83;;;12.13;;
5416;SDS011;2731;50.754;12.990;2024-02-26T05:23:44;22.05;;;11.73;;
5416;SDS011;2731;50.754;12.990;2024-02-26T05:26:18;21.50;;;12.45;;
5416;SDS011;2731;50.754;12.990;2024-02-26T05:28:47;23.35;;;12.73;;
5416;SDS011;2731;50.754;12.990;2024-02-26T05:31:43;24.55;;;12.13;;
5416;SDS011;2731;50.754;12.990;2024-02-26T05:34:30;25.08;;;12.25;;
5416;SDS011;2731;50.754;12.990;2024-02-26T05:37:16;22.65;;;12.35;;
5416;SDS011;2731;50.754;12.990;2024-02-26T05:40:01;24.02;;;12.20;;
5416;SDS011;2731;50.754;12.990;2024-02-26T05:42:51;20.02;;;11.45;;
5416;SDS011;2731;50.754;12.990;2024-02-26T05:45:20;22.88;;;12.85;;
5416;SDS011;2731;50.754;12.990;2024-02-26T05:48:05;25.13;;;11.73;;
5416;SDS011;2731;50.754;12.990;2024-02-26T05:50:51;20.98;;;11.38;;
5416;SDS011;2731;50.754;12.990;2024-02-26T05:53:38;22.17;;;12.50;;
5416;SDS011;2731;50.754;12.990;2024-02-26T05:56:25;18.75;;;10.80;;
5416;SDS011;2731;50.754;12.990;2024-02-26T05:59:11;20.90;;;12.30;;
5416;SDS011;2731;50.754;12.990;2024-02-26T06:01:56;21.65;;;12.30;;
5416;SDS011;2731;50.754;12.990;2024-02-26T06:04:42;21.77;;;11.90;;
5416;SDS011;2731;50.754;12.990;2024-02-26T06:07:29;23.60;;;12.52;;
5416;SDS011;2731;50.754;12.990;2024-02-26T06:10:15;23.73;;;13.52;;
5416;SDS011;2731;50.754;12.990;2024-02-26T06:13:00;19.67;;;11.63;;
5416;SDS011;2731;50.754;12.990;2024-02-26T06:15:48;26.73;;;13.80;;
5416;SDS011;2731;50.754;12.990;2024-02-26T06:18:34;25.60;;;13.73;;
5416;SDS011;2731;50.754;12.990;2024-02-26T06:21:19;20.77;;;12.32;;
5416;SDS011;2731;50.754;12.990;2024-02-26T06:24:06;27.75;;;15.45;;
5416;SDS011;2731;50.754;12.990;2024-02-26T06:26:52;22.25;;;12.10;;
5416;SDS011;2731;50.754;12.990;2024-02-26T06:29:23;24.75;;;13.95;;
5416;SDS011;2731;50.754;12.990;2024-02-26T06:32:09;27.75;;;15.23;;
5416;SDS011;2731;50.754;12.990;2024-02-26T06:34:56;23.02;;;12.95;;
5416;SDS011;2731;50.754;12.990;2024-02-26T06:37:42;24.60;;;14.18;;
5416;SDS011;2731;50.754;12.990;2024-02-26T06:40:29;32.75;;;15.55;;
5416;SDS011;2731;50.754;12.990;2024-02-26T06:43:15;28.98;;;15.65;;
5416;SDS011;2731;50.754;12.990;2024-02-26T06:46:00;23.52;;;14.50;;
5416;SDS011;2731;50.754;12.990;2024-02-26T06:48:28;21.48;;;13.07;;
5416;SDS011;2731;50.754;12.990;2024-02-26T06:51:17;22.60;;;13.57;;
5416;SDS011;2731;50.754;12.990;2024-02-26T06:54:03;26.42;;;13.90;;
5416;SDS011;2731;50.754;12.990;2024-02-26T06:56:49;24.25;;;13.55;;
5416;SDS011;2731;50.754;12.990;2024-02-26T06:59:35;22.75;;;13.00;;
5416;SDS011;2731;50.754;12.990;2024-02-26T07:02:21;22.73;;;13.40;;
5416;SDS011;2731;50.754;12.990;2024-02-26T07:04:50;26.38;;;12.57;;
5416;SDS011;2731;50.754;12.990;2024-02-26T07:07:37;25.67;;;13.45;;
5416;SDS011;2731;50.754;12.990;2024-02-26T07:10:24;26.73;;;14.00;;
5416;SDS011;2731;50.754;12.990;2024-02-26T07:13:10;25.08;;;13.07;;
5416;SDS011;2731;50.754;12.990;2024-02-26T07:15:55;20.48;;;12.93;;
5416;SDS011;2731;50.754;12.990;2024-02-26T07:18:42;19.17;;;10.93;;
5416;SDS011;2731;50.754;12.990;2024-02-26T07:21:27;22.13;;;11.23;;
5416;SDS011;2731;50.754;12.990;2024-02-26T07:24:14;23.33;;;10.82;;
5416;SDS011;2731;50.754;12.990;2024-02-26T07:26:59;21.30;;;11.52;;
5416;SDS011;2731;50.754;12.990;2024-02-26T07:29:45;18.60;;;10.27;;
5416;SDS011;2731;50.754;12.990;2024-02-26T07:32:32;19.80;;;11.18;;
5416;SDS011;2731;50.754;12.990;2024-02-26T07:35:19;20.13;;;10.40;;
5416;SDS011;2731;50.754;12.990;2024-02-26T07:38:06;14.27;;;9.98;;
5416;SDS011;2731;50.754;12.990;2024-02-26T07:40:52;19.13;;;10.18;;
5416;SDS011;2731;50.754;12.990;2024-02-26T07:43:41;17.90;;;11.05;;
5416;SDS011;2731;50.754;12.990;2024-02-26T07:46:29;17.80;;;11.20;;
5416;SDS011;2731;50.754;12.990;2024-02-26T07:49:15;21.35;;;10.55;;
5416;SDS011;2731;50.754;12.990;2024-02-26T07:51:59;16.80;;;9.10;;
5416;SDS011;2731;50.754;12.990;2024-02-26T07:54:44;18.60;;;10.60;;
5416;SDS011;2731;50.754;12.990;2024-02-26T07:57:32;21.15;;;11.75;;
5416;SDS011;2731;50.754;12.990;2024-02-26T08:00:02;20.23;;;11.05;;
5416;SDS011;2731;50.754;12.990;2024-02-26T08:02:51;19.65;;;10.57;;
5416;SDS011;2731;50.754;12.990;2024-02-26T08:05:20;16.88;;;10.77;;
5416;SDS011;2731;50.754;12.990;2024-02-26T08:07:47;18.27;;;11.90;;
5416;SDS011;2731;50.754;12.990;2024-02-26T08:10:32;16.15;;;10.55;;
5416;SDS011;2731;50.754;12.990;2024-02-26T08:13:18;17.88;;;11.75;;
5416;SDS011;2731;50.754;12.990;2024-02-26T08:16:06;16.77;;;10.13;;
5416;SDS011;2731;50.754;12.990;2024-02-26T08:18:51;15.80;;;10.30;;
5416;SDS011;2731;50.754;12.990;2024-02-26T08:21:36;15.40;;;9.77;;
5416;SDS011;2731;50.754;12.990;2024-02-26T08:24:26;15.80;;;9.85;;
5416;SDS011;2731;50.754;12.990;2024-02-26T08:27:13;18.30;;;10.57;;
5416;SDS011;2731;50.754;12.990;2024-02-26T08:30:10;16.98;;;9.73;;
5416;SDS011;2731;50.754;12.990;2024-02-26T08:35:49;19.75;;;10.52;;
5416;SDS011;2731;50.754;12.990;2024-02-26T08:38:38;17.50;;;10.27;;
5416;SDS011;2731;50.754;12.990;2024-02-26T08:41:25;18.15;;;9.80;;
5416;SDS011;2731;50.754;12.990;2024-02-26T08:44:13;16.92;;;9.70;;
5416;SDS011;2731;50.754;12.990;2024-02-26T08:46:59;15.48;;;10.15;;
5416;SDS011;2731;50.754;12.990;2024-02-26T08:49:52;12.32;;;9.27;;
5416;SDS011;2731;50.754;12.990;2024-02-26T08:52:18;15.73;;;9.95;;
5416;SDS011;2731;50.754;12.990;2024-02-26T08:54:49;13.98;;;9.20;;
5416;SDS011;2731;50.754;12.990;2024-02-26T08:57:36;12.82;;;8.77;;
5416;SDS011;2731;50.754;12.990;2024-02-26T09:00:07;11.48;;;7.90;;
5416;SDS011;2731;50.754;12.990;2024-02-26T09:02:35;11.23;;;8.13;;
5416;SDS011;2731;50.754;12.990;2024-02-26T09:05:26;11.50;;;8.10;;
5416;SDS011;2731;50.754;12.990;2024-02-26T09:08:13;12.75;;;8.65;;
5416;SDS011;2731;50.754;12.990;2024-02-26T09:11:00;13.15;;;8.30;;
5416;SDS011;2731;50.754;12.990;2024-02-26T09:13:50;13.23;;;8.15;;
5416;SDS011;2731;50.754;12.990;2024-02-26T09:16:34;13.80;;;8.30;;
5416;SDS011;2731;50.754;12.990;2024-02-26T09:19:23;11.98;;;8.10;;
5416;SDS011;2731;50.754;12.990;2024-02-26T09:22:13;11.27;;;8.10;;
5416;SDS011;2731;50.754;12.990;2024-02-26T09:24:58;11.23;;;7.00;;
5416;SDS011;2731;50.754;12.990;2024-02-26T09:27:44;12.25;;;7.97;;
5416;SDS011;2731;50.754;12.990;2024-02-26T09:30:30;10.85;;;7.75;;
5416;SDS011;2731;50.754;12.990;2024-02-26T09:33:15;10.90;;;6.78;;
5416;SDS011;2731;50.754;12.990;2024-02-26T09:36:01;10.00;;;7.15;;
5416;SDS011;2731;50.754;12.990;2024-02-26T09:38:46;10.52;;;7.28;;
5416;SDS011;2731;50.754;12.990;2024-02-26T09:41:31;12.93;;;7.25;;
5416;SDS011;2731;50.754;12.990;2024-02-26T09:44:19;13.38;;;6.70;;
5416;SDS011;2731;50.754;12.990;2024-02-26T09:47:08;9.85;;;7.03;;
5416;SDS011;2731;50.754;12.990;2024-02-26T09:49:53;10.60;;;6.78;;
5416;SDS011;2731;50.754;12.990;2024-02-26T09:52:42;10.43;;;7.50;;
5416;SDS011;2731;50.754;12.990;2024-02-26T09:55:10;10.90;;;7.22;;
5416;SDS011;2731;50.754;12.990;2024-02-26T09:57:58;8.35;;;6.10;;
5416;SDS011;2731;50.754;12.990;2024-02-26T10:00:46;8.95;;;6.70;;
5416;SDS011;2731;50.754;12.990;2024-02-26T10:03:13;11.18;;;6.93;;
5416;SDS011;2731;50.754;12.990;2024-02-26T10:05:43;10.15;;;6.78;;
5416;SDS011;2731;50.754;12.990;2024-02-26T10:08:33;9.00;;;6.97;;
5416;SDS011;2731;50.754;12.990;2024-02-26T10:11:20;9.20;;;6.53;;
5416;SDS011;2731;50.754;12.990;2024-02-26T10:14:08;11.02;;;6.60;;
5416;SDS011;2731;50.754;12.990;2024-02-26T10:16:55;10.93;;;6.60;;
5416;SDS011;2731;50.754;12.990;2024-02-26T10:19:40;11.90;;;7.05;;
5416;SDS011;2731;50.754;12.990;2024-02-26T10:22:28;8.57;;;6.60;;
5416;SDS011;2731;50.754;12.990;2024-02-26T10:25:05;10.00;;;6.57;;
5416;SDS011;2731;50.754;12.990;2024-02-26T10:27:51;11.52;;;7.20;;
5416;SDS011;2731;50.754;12.990;2024-02-26T10:30:38;14.00;;;7.72;;
5416;SDS011;2731;50.754;12.990;2024-02-26T10:33:38;9.45;;;6.88;;
5416;SDS011;2731;50.754;12.990;2024-02-26T10:36:24;8.00;;;6.22;;
5416;SDS011;2731;50.754;12.990;2024-02-26T10:39:12;11.60;;;7.28;;
5416;SDS011;2731;50.754;12.990;2024-02-26T10:41:42;9.60;;;6.70;;
5416;SDS011;2731;50.754;12.990;2024-02-26T10:44:28;10.75;;;7.90;;
5416;SDS011;2731;50.754;12.990;2024-02-26T10:47:13;9.02;;;6.43;;
5416;SDS011;2731;50.754;12.990;2024-02-26T10:49:45;10.63;;;6.78;;
5416;SDS011;2731;50.754;12.990;2024-02-26T10:52:18;11.25;;;7.72;;
5416;SDS011;2731;50.754;12.990;2024-02-26T10:54:56;11.70;;;7.22;;
5416;SDS011;2731;50.754;12.990;2024-02-26T10:57:24;10.90;;;6.70;;
5416;SDS011;2731;50.754;12.990;2024-02-26T10:59:53;10.73;;;7.47;;
5416;SDS011;2731;50.754;12.990;2024-02-26T11:02:21;8.30;;;6.07;;
5416;SDS011;2731;50.754;12.990;2024-02-26T11:04:50;8.82;;;6.30;;
5416;SDS011;2731;50.754;12.990;2024-02-26T11:07:20;9.90;;;6.38;;
5416;SDS011;2731;50.754;12.990;2024-02-26T11:09:49;14.65;;;6.65;;
5416;SDS011;2731;50.754;12.990;2024-02-26T11:12:19;9.30;;;6.75;;
5416;SDS011;2731;50.754;12.990;2024-02-26T11:14:49;10.27;;;6.50;;
5416;SDS011;2731;50.754;12.990;2024-02-26T11:17:21;10.02;;;6.75;;
5416;SDS011;2731;50.754;12.990;2024-02-26T11:19:49;11.07;;;7.40;;
5416;SDS011;2731;50.754;12.990;2024-02-26T11:22:18;9.05;;;6.20;;
5416;SDS011;2731;50.754;12.990;2024-02-26T11:24:48;10.25;;;7.60;;
5416;SDS011;2731;50.754;12.990;2024-02-26T11:27:16;7.75;;;5.63;;
5416;SDS011;2731;50.754;12.990;2024-02-26T11:29:44;8.52;;;5.90;;
5416;SDS011;2731;50.754;12.990;2024-02-26T11:32:15;11.60;;;6.65;;
5416;SDS011;2731;50.754;12.990;2024-02-26T11:34:42;10.02;;;6.22;;
5416;SDS011;2731;50.754;12.990;2024-02-26T11:37:14;8.73;;;5.97;;
5416;SDS011;2731;50.754;12.990;2024-02-26T11:39:42;8.23;;;4.90;;
5416;SDS011;2731;50.754;12.990;2024-02-26T11:42:15;8.07;;;5.05;;
5416;SDS011;2731;50.754;12.990;2024-02-26T11:44:52;6.82;;;4.75;;
5416;SDS011;2731;50.754;12.990;2024-02-26T11:47:22;7.05;;;4.97;;
5416;SDS011;2731;50.754;12.990;2024-02-26T11:49:49;6.97;;;4.80;;
5416;SDS011;2731;50.754;12.990;2024-02-26T11:52:17;10.90;;;6.43;;
5416;SDS011;2731;50.754;12.990;2024-02-26T11:54:53;8.40;;;5.50;;
5416;SDS011;2731;50.754;12.990;2024-02-26T12:02:43;9.05;;;5.65;;
5416;SDS011;2731;50.754;12.990;2024-02-26T12:07:43;9.15;;;6.22;;
5416;SDS011;2731;50.754;12.990;2024-02-26T12:10:16;8.95;;;6.00;;
5416;SDS011;2731;50.754;12.990;2024-02-26T12:13:02;9.15;;;6.05;;
5416;SDS011;2731;50.754;12.990;2024-02-26T12:15:36;9.80;;;7.07;;
5416;SDS011;2731;50.754;12.990;2024-02-26T12:18:07;7.53;;;5.53;;
5416;SDS011;2731;50.754;12.990;2024-02-26T12:20:38;8.27;;;5.82;;
5416;SDS011;2731;50.754;12.990;2024-02-26T12:23:04;10.52;;;6.22;;
5416;SDS011;2731;50.754;12.990;2024-02-26T12:25:32;10.75;;;6.00;;
5416;SDS011;2731;50.754;12.990;2024-02-26T12:28:04;10.02;;;6.35;;
5416;SDS011;2731;50.754;12.990;2024-02-26T12:30:31;7.93;;;5.82;;
5416;SDS011;2731;50.754;12.990;2024-02-26T12:32:58;10.27;;;5.93;;
5416;SDS011;2731;50.754;12.990;2024-02-26T12:35:27;9.35;;;6.40;;
5416;SDS011;2731;50.754;12.990;2024-02-26T12:37:54;7.75;;;5.88;;
5416;SDS011;2731;50.754;12.990;2024-02-26T12:40:22;10.75;;;6.38;;
5416;SDS011;2731;50.754;12.990;2024-02-26T12:42:48;10.45;;;6.70;;
5416;SDS011;2731;50.754;12.990;2024-02-26T12:45:28;8.35;;;6.07;;
5416;SDS011;2731;50.754;12.990;2024-02-26T12:48:06;11.10;;;6.53;;
5416;SDS011;2731;50.754;12.990;2024-02-26T12:50:33;11.00;;;6.90;;
5416;SDS011;2731;50.754;12.990;2024-02-26T12:52:59;8.70;;;6.45;;
5416;SDS011;2731;50.754;12.990;2024-02-26T12:55:27;9.57;;;6.47;;
5416;SDS011;2731;50.754;12.990;2024-02-26T12:57:55;16.38;;;10.63;;
5416;SDS011;2731;50.754;12.990;2024-02-26T13:00:26;13.85;;;9.02;;
5416;SDS011;2731;50.754;12.990;2024-02-26T13:02:53;16.70;;;10.63;;
5416;SDS011;2731;50.754;12.990;2024-02-26T13:05:22;13.13;;;9.88;;
5416;SDS011;2731;50.754;12.990;2024-02-26T13:07:54;13.90;;;9.55;;
5416;SDS011;2731;50.754;12.990;2024-02-26T13:10:24;17.70;;;10.73;;
5416;SDS011;2731;50.754;12.990;2024-02-26T13:12:51;14.73;;;10.07;;
5416;SDS011;2731;50.754;12.990;2024-02-26T13:15:18;22.38;;;12.13;;
5416;SDS011;2731;50.754;12.990;2024-02-26T13:17:47;14.43;;;10.48;;
5416;SDS011;2731;50.754;12.990;2024-02-26T13:20:30;17.60;;;10.90;;
5416;SDS011;2731;50.754;12.990;2024-02-26T13:23:04;19.02;;;11.15;;
5416;SDS011;2731;50.754;12.990;2024-02-26T13:25:35;18.85;;;10.90;;
5416;SDS011;2731;50.754;12.990;2024-02-26T13:28:16;14.88;;;10.15;;
5416;SDS011;2731;50.754;12.990;2024-02-26T13:30:55;18.67;;;10.82;;
5416;SDS011;2731;50.754;12.990;2024-02-26T13:33:40;16.70;;;11.10;;
5416;SDS011;2731;50.754;12.990;2024-02-26T13:36:06;16.38;;;11.70;;
5416;SDS011;2731;50.754;12.990;2024-02-26T13:38:35;19.08;;;11.43;;
5416;SDS011;2731;50.754;12.990;2024-02-26T13:41:01;18.58;;;12.27;;
5416;SDS011;2731;50.754;12.990;2024-02-26T13:43:29;19.65;;;12.20;;
5416;SDS011;2731;50.754;12.990;2024-02-26T13:45:59;19.65;;;12.98;;
5416;SDS011;2731;50.754;12.990;2024-02-26T13:48:37;21.73;;;13.32;;
5416;SDS011;2731;50.754;12.990;2024-02-26T13:51:05;19.08;;;12.75;;
5416;SDS011;2731;50.754;12.990;2024-02-26T13:53:33;22.15;;;13.85;;
5416;SDS011;2731;50.754;12.990;2024-02-26T13:56:00;17.45;;;11.85;;
5416;SDS011;2731;50.754;12.990;2024-02-26T13:58:31;22.38;;;13.02;;
5416;SDS011;2731;50.754;12.990;2024-02-26T14:01:00;24.10;;;14.02;;
5416;SDS011;2731;50.754;12.990;2024-02-26T14:03:29;23.15;;;13.90;;
5416;SDS011;2731;50.754;12.990;2024-02-26T14:05:58;27.63;;;17.30;;
5416;SDS011;2731;50.754;12.990;2024-02-26T14:08:26;22.83;;;13.32;;
5416;SDS011;2731;50.754;12.990;2024-02-26T14:10:52;23.08;;;14.20;;
5416;SDS011;2731;50.754;12.990;2024-02-26T14:13:20;19.58;;;12.63;;
5416;SDS011;2731;50.754;12.990;2024-02-26T14:15:47;21.65;;;12.43;;
5416;SDS011;2731;50.754;12.990;2024-02-26T14:18:15;19.40;;;12.43;;
5416;SDS011;2731;50.754;12.990;2024-02-26T14:20:41;22.27;;;13.30;;
5416;SDS011;2731;50.754;12.990;2024-02-26T14:23:07;22.60;;;14.80;;
5416;SDS011;2731;50.754;12.990;2024-02-26T14:25:33;19.00;;;13.52;;
5416;SDS011;2731;50.754;12.990;2024-02-26T14:28:02;21.05;;;12.90;;
5416;SDS011;2731;50.754;12.990;2024-02-26T14:30:40;22.23;;;15.15;;
5416;SDS011;2731;50.754;12.990;2024-02-26T14:33:07;22.38;;;14.20;;
5416;SDS011;2731;50.754;12.990;2024-02-26T14:35:35;24.00;;;14.90;;
5416;SDS011;2731;50.754;12.990;2024-02-26T14:38:01;23.42;;;14.15;;
5416;SDS011;2731;50.754;12.990;2024-02-26T14:40:36;24.70;;;15.88;;
5416;SDS011;2731;50.754;12.990;2024-02-26T14:43:02;26.30;;;15.75;;
5416;SDS011;2731;50.754;12.990;2024-02-26T14:45:30;22.90;;;15.85;;
5416;SDS011;2731;50.754;12.990;2024-02-26T14:47:56;25.23;;;15.68;;
5416;SDS011;2731;50.754;12.990;2024-02-26T14:50:23;24.10;;;15.60;;
5416;SDS011;2731;50.754;12.990;2024-02-26T14:52:49;25.90;;;14.35;;
5416;SDS011;2731;50.754;12.990;2024-02-26T14:55:15;21.00;;;14.93;;
5416;SDS011;2731;50.754;12.990;2024-02-26T14:57:41;30.73;;;16.23;;
5416;SDS011;2731;50.754;12.990;2024-02-26T15:00:07;24.67;;;16.17;;
5416;SDS011;2731;50.754;12.990;2024-02-26T15:02:34;22.45;;;15.20;;
5416;SDS011;2731;50.754;12.990;2024-02-26T15:05:01;21.35;;;14.05;;
5416;SDS011;2731;50.754;12.990;2024-02-26T15:07:28;23.55;;;15.70;;
5416;SDS011;2731;50.754;12.990;2024-02-26T15:09:54;28.67;;;15.38;;
5416;SDS011;2731;50.754;12.990;2024-02-26T15:12:22;24.17;;;15.95;;
5416;SDS011;2731;50.754;12.990;2024-02-26T15:14:48;25.17;;;15.73;;
5416;SDS011;2731;50.754;12.990;2024-02-26T15:17:14;25.73;;;15.45;;
5416;SDS011;2731;50.754;12.990;2024-02-26T15:19:40;22.23;;;14.68;;
5416;SDS011;2731;50.754;12.990;2024-02-26T15:22:06;24.17;;;15.60;;
5416;SDS011;2731;50.754;12.990;2024-02-26T15:24:33;21.73;;;14.48;;
5416;SDS011;2731;50.754;12.990;2024-02-26T15:26:59;24.88;;;15.20;;
5416;SDS011;2731;50.754;12.990;2024-02-26T15:29:25;20.35;;;13.90;;
5416;SDS011;2731;50.754;12.990;2024-02-26T15:31:52;22.20;;;15.25;;